Time;durP1;ratioP1;P1;durP2;ratioP2;P2;SDS_P1;SDS_P2;PMS_P1;PMS_P2;Temp;Humidity;BMP_temperature;BMP_pressure;BME280_temperature;BME280_humidity;BME280_pressure;Samples;Min_cycle;Max_cycle;Signal;HPM_P1;HPM_P2
2022/09/23 00:02:00;;;;;;;;;;;;;;;17.14;38.28;99505.75;4467253;32;35044;-86
2022/09/23 00:04:30;;;;;;;;;;;;;;;17.36;37.83;99509.91;4466784;32;33557;-86
2022/09/23 00:06:57;;;;;;;;;;;;;;;17.25;37.97;99506.50;4466905;32;35883;-90
2022/09/23 00:09:24;;;;;;;;;;;;;;;17.31;37.89;99508.19;4473903;32;35207;-85
2022/09/23 00:11:52;;;;;;;;;;;;;;;17.39;37.82;99507.25;4480399;32;34697;-87
2022/09/23 00:14:20;;;;;;;;;;;;;;;17.55;37.30;99501.88;4475011;32;34076;-84
2022/09/23 00:16:47;;;;;;;;;;;;;;;17.21;37.81;99503.06;4467009;32;33910;-86
2022/09/23 00:19:14;;;;;;;;;;;;;;;17.25;37.86;99509.12;4469148;32;34195;-85
2022/09/23 00:21:42;;;;;;;;;;;;;;;17.16;37.80;99488.25;4467384;32;34344;-86
2022/09/23 00:24:09;;;;;;;;;;;;;;;17.08;38.02;99490.06;4471433;32;33440;-91
2022/09/23 00:26:36;;;;;;;;;;;;;;;16.97;38.37;99493.66;4482501;32;34368;-85
2022/09/23 00:29:03;;;;;;;;;;;;;;;17.03;38.33;99492.72;4470667;32;35199;-85
2022/09/23 00:31:30;;;;;;;;;;;;;;;16.99;38.35;99491.88;4467220;32;34357;-91
2022/09/23 00:33:59;;;;;;;;;;;;;;;16.85;38.82;99485.00;4466954;32;33274;-85
2022/09/23 00:36:27;;;;;;;;;;;;;;;16.98;38.44;99486.66;4452635;32;34093;-90
2022/09/23 00:38:54;;;;;;;;;;;;;;;16.81;38.87;99486.78;4467033;32;35355;-85
2022/09/23 00:41:22;;;;;;;;;;;;;;;16.89;38.66;99484.97;4466771;32;34495;-93
2022/09/23 00:43:51;;;;;;;;;;;;;;;17.10;38.06;99483.06;4452357;32;33708;-93
2022/09/23 00:46:33;;;;;;;;;;;;;;;17.20;37.79;99472.50;4466419;32;33982;-90
2022/09/23 00:49:14;;;;;;;;;;;;;;;16.93;38.15;99471.00;4466981;32;34158;-89
2022/09/23 00:51:47;;;;;;;;;;;;;;;16.97;38.20;99469.19;4452855;32;34460;-88
2022/09/23 00:54:14;;;;;;;;;;;;;;;17.03;37.86;99462.16;4452431;32;33549;-85
2022/09/23 00:56:41;;;;;;;;;;;;;;;16.86;38.23;99464.06;4452509;32;33971;-86
2022/09/23 00:59:08;;;;;;;;;;;;;;;16.91;38.41;99466.63;4466798;32;34357;-85
2022/09/23 01:01:36;;;;;;;;;;;;;;;16.83;38.79;99468.44;4452835;32;34522;-87
2022/09/23 01:04:03;;;;;;;;;;;;;;;16.84;38.46;99464.94;4467092;32;34246;-86
2022/09/23 01:06:31;;;;;;;;;;;;;;;16.86;37.88;99468.41;4451266;32;34824;-86
2022/09/23 01:08:59;;;;;;;;;;;;;;;16.94;37.92;99470.09;4452934;32;34295;-85
2022/09/23 01:11:32;;;;;;;;;;;;;;;17.01;37.72;99473.56;4453388;32;33916;-86
2022/09/23 01:14:14;;;;;;;;;;;;;;;16.95;37.79;99466.59;4451930;32;33452;-86
2022/09/23 01:16:48;;;;;;;;;;;;;;;16.84;38.26;99473.66;4452712;32;33565;-92
2022/09/23 01:19:34;;;;;;;;;;;;;;;16.65;38.81;99477.28;4451718;32;34492;-86
2022/09/23 01:22:01;;;;;;;;;;;;;;;16.80;38.07;99478.94;4467777;32;34645;-89
2022/09/23 01:24:29;;;;;;;;;;;;;;;16.77;38.27;99475.44;4465416;32;33682;-90
2022/09/23 01:26:58;;;;;;;;;;;;;;;16.85;37.77;99472.78;4452892;32;34100;-86
2022/09/23 01:29:55;;;;;;;;;;;;;;;16.64;38.34;99465.94;4452633;32;34283;-87
2022/09/23 01:32:34;;;;;;;;;;;;;;;16.71;38.27;99470.25;4439748;32;34495;-91
2022/09/23 01:35:22;;;;;;;;;;;;;;;16.79;38.14;99470.22;4452974;32;34426;-92
2022/09/23 01:37:52;;;;;;;;;;;;;;;16.62;38.24;99469.44;4453201;32;33573;-93
2022/09/23 01:40:19;;;;;;;;;;;;;;;16.74;37.77;99470.28;4451880;32;34528;-86
2022/09/23 01:42:57;;;;;;;;;;;;;;;16.74;37.57;99475.50;4452408;32;35007;-88
2022/09/23 01:45:30;;;;;;;;;;;;;;;16.68;37.90;99472.03;4451657;32;33511;-91
2022/09/23 01:47:59;;;;;;;;;;;;;;;16.69;37.98;99465.91;4452892;32;33854;-86
2022/09/23 01:50:55;;;;;;;;;;;;;;;16.51;38.50;99466.87;4453037;32;35166;-92
2022/09/23 01:53:24;;;;;;;;;;;;;;;16.50;38.40;99473.88;4452470;32;34258;-84
2022/09/23 01:55:55;;;;;;;;;;;;;;;16.63;38.20;99469.44;4451065;32;33501;-90
2022/09/23 01:58:22;;;;;;;;;;;;;;;16.53;38.08;99473.00;4451184;32;33922;-85
2022/09/23 02:00:54;;;;;;;;;;;;;;;16.44;38.26;99471.31;4452176;32;33991;-84
2022/09/23 02:03:26;;;;;;;;;;;;;;;16.48;38.27;99465.16;4451527;32;34173;-92
2022/09/23 02:05:55;;;;;;;;;;;;;;;16.48;38.41;99465.16;4450924;32;34471;-92
2022/09/23 02:08:24;;;;;;;;;;;;;;;16.48;38.34;99465.16;4451395;32;36928;-88
2022/09/23 02:10:53;;;;;;;;;;;;;;;16.49;38.42;99471.28;4451134;32;33951;-87
2022/09/23 02:13:28;;;;;;;;;;;;;;;16.59;38.39;99474.69;4452177;32;34938;-86
2022/09/23 02:15:57;;;;;;;;;;;;;;;16.43;38.59;99466.06;4451957;32;33446;-85
2022/09/23 02:18:26;;;;;;;;;;;;;;;15.97;39.58;99463.69;4463968;32;33653;-86
2022/09/23 02:21:05;;;;;;;;;;;;;;;16.32;38.75;99465.25;4467029;32;34914;-86
2022/09/23 02:23:39;;;;;;;;;;;;;;;16.11;39.01;99455.78;4467330;32;34441;-88
2022/09/23 02:26:26;;;;;;;;;;;;;;;16.23;38.89;99466.19;4456696;32;34570;-93
2022/09/23 02:28:54;;;;;;;;;;;;;;;16.37;38.55;99467.00;4452790;32;33926;-90
2022/09/23 02:31:29;;;;;;;;;;;;;;;16.36;38.46;99467.84;4452513;32;34097;-91
2022/09/23 02:34:16;;;;;;;;;;;;;;;16.46;38.13;99464.28;4451390;32;34554;-92
2022/09/23 02:36:46;;;;;;;;;;;;;;;16.26;38.55;99466.19;4466237;32;33313;-91
2022/09/23 02:39:13;;;;;;;;;;;;;;;16.22;38.94;99464.47;4468241;32;34693;-87
2022/09/23 02:41:44;;;;;;;;;;;;;;;16.21;38.60;99465.31;4466171;32;34850;-91
2022/09/23 02:44:14;;;;;;;;;;;;;;;16.24;38.61;99467.91;4460386;32;34564;-85
2022/09/23 02:46:42;;;;;;;;;;;;;;;16.19;38.79;99461.84;4451326;32;34411;-86
2022/09/23 02:49:16;;;;;;;;;;;;;;;16.19;38.50;99460.09;4451327;32;35027;-93
2022/09/23 02:51:44;;;;;;;;;;;;;;;16.21;38.67;99467.94;4451528;32;33804;-90
2022/09/23 02:54:13;;;;;;;;;;;;;;;16.33;38.06;99464.38;4459388;32;34274;-88
2022/09/23 02:56:40;;;;;;;;;;;;;;;16.26;38.09;99466.19;4466469;32;33598;-86
2022/09/23 02:59:08;;;;;;;;;;;;;;;16.23;38.47;99464.44;4468121;32;34802;-93
2022/09/23 03:01:43;;;;;;;;;;;;;;;16.11;38.92;99468.88;4466920;32;34907;-89
2022/09/23 03:04:19;;;;;;;;;;;;;;;16.08;39.03;99461.03;4461306;32;35300;-86
2022/09/23 03:07:23;;;;;;;;;;;;;;;16.29;38.48;99466.16;4478808;32;33764;-89
2022/09/23 03:09:53;;;;;;;;;;;;;;;16.22;38.35;99465.31;4418686;32;34000;-84
2022/09/23 03:12:38;;;;;;;;;;;;;;;16.22;38.31;99459.22;4456456;32;34427;-91
2022/09/23 03:15:24;;;;;;;;;;;;;;;16.06;38.38;99463.62;4469820;32;34423;-86
2022/09/23 03:17:56;;;;;;;;;;;;;;;16.07;38.68;99459.31;4474125;31;32907;-86
2022/09/23 03:20:26;;;;;;;;;;;;;;;16.16;38.62;99465.34;4456943;32;35493;-88
2022/09/23 03:22:54;;;;;;;;;;;;;;;16.07;38.76;99461.91;4457024;32;34366;-86
2022/09/23 03:25:22;;;;;;;;;;;;;;;16.12;38.72;99473.22;4467315;32;34037;-86
2022/09/23 03:27:50;;;;;;;;;;;;;;;16.06;38.94;99463.62;4478775;31;33342;-85
2022/09/23 03:30:17;;;;;;;;;;;;;;;16.20;38.79;99468.81;4458312;32;34139;-85
2022/09/23 03:32:44;;;;;;;;;;;;;;;16.22;38.46;99464.47;4469568;32;34432;-86
2022/09/23 03:35:12;;;;;;;;;;;;;;;16.21;38.37;99470.53;4482954;32;34435;-92
2022/09/23 03:37:48;;;;;;;;;;;;;;;16.17;38.62;99466.19;4483458;32;33963;-94
2022/09/23 03:40:18;;;;;;;;;;;;;;;16.17;38.76;99463.59;4480306;32;34288;-86
2022/09/23 03:42:48;;;;;;;;;;;;;;;16.16;38.71;99465.34;4469138;31;34467;-85
2022/09/23 03:45:17;;;;;;;;;;;;;;;16.23;38.83;99466.19;4483093;32;33956;-93
2022/09/23 03:47:44;;;;;;;;;;;;;;;15.97;39.12;99459.31;4469159;32;34408;-85
2022/09/23 03:50:16;;;;;;;;;;;;;;;16.18;38.85;99468.84;4467830;32;33951;-88
2022/09/23 03:52:43;;;;;;;;;;;;;;;16.20;38.89;99464.44;4470215;32;34500;-87
2022/09/23 03:55:10;;;;;;;;;;;;;;;16.30;38.52;99471.38;4478076;32;34469;-92
2022/09/23 03:57:37;;;;;;;;;;;;;;;16.16;38.76;99470.56;4481759;32;33774;-93
2022/09/23 04:00:06;;;;;;;;;;;;;;;16.34;38.28;99468.75;4473181;32;34027;-87
2022/09/23 04:02:37;;;;;;;;;;;;;;;16.18;38.56;99463.59;4473487;32;34980;-92
2022/09/23 04:05:05;;;;;;;;;;;;;;;16.15;38.93;99467.97;4479250;32;34467;-86
2022/09/23 04:07:32;;;;;;;;;;;;;;;15.97;39.31;99459.31;4466347;32;34609;-88
2022/09/23 04:10:00;;;;;;;;;;;;;;;16.04;39.21;99466.28;4455741;32;33726;-90
2022/09/23 04:12:27;;;;;;;;;;;;;;;16.11;39.22;99471.47;4466485;32;34076;-94
2022/09/23 04:14:55;;;;;;;;;;;;;;;16.08;39.19;99467.13;4466139;32;34579;-86
2022/09/23 04:17:22;;;;;;;;;;;;;;;16.07;39.07;99465.41;4475411;32;33515;-87
2022/09/23 04:19:49;;;;;;;;;;;;;;;16.15;38.85;99468.84;4473023;32;34011;-92
2022/09/23 04:22:16;;;;;;;;;;;;;;;16.21;38.64;99465.31;4476189;32;34163;-93
2022/09/23 04:24:43;;;;;;;;;;;;;;;16.24;38.67;99474.00;4470966;32;33709;-94
2022/09/23 04:27:11;;;;;;;;;;;;;;;16.09;38.93;99463.62;4474814;31;33473;-88
2022/09/23 04:29:38;;;;;;;;;;;;;;;16.07;38.93;99462.78;4469896;32;35011;-88
2022/09/23 04:32:05;;;;;;;;;;;;;;;16.13;38.95;99474.94;4467872;32;34524;-86
2022/09/23 04:34:33;;;;;;;;;;;;;;;16.15;38.91;99465.38;4471255;32;34337;-91
2022/09/23 04:37:00;;;;;;;;;;;;;;;16.18;38.68;99474.06;4469463;32;34332;-91
2022/09/23 04:39:27;;;;;;;;;;;;;;;16.28;38.33;99472.25;4464210;32;33803;-92
2022/09/23 04:41:58;;;;;;;;;;;;;;;15.99;38.71;99469.81;4465359;32;33999;-93
2022/09/23 04:44:29;;;;;;;;;;;;;;;16.23;38.46;99477.50;4465735;32;34237;-89
2022/09/23 04:46:56;;;;;;;;;;;;;;;16.17;38.70;99481.91;4465797;32;34153;-90
2022/09/23 04:49:25;;;;;;;;;;;;;;;16.13;38.82;99485.41;4466009;32;35014;-90
2022/09/23 04:51:53;;;;;;;;;;;;;;;16.16;38.78;99483.66;4465728;32;34734;-93
2022/09/23 04:54:20;;;;;;;;;;;;;;;16.18;38.98;99483.66;4466171;32;34573;-93
2022/09/23 04:56:47;;;;;;;;;;;;;;;16.19;39.23;99482.78;4466062;32;34065;-92
2022/09/23 04:59:15;;;;;;;;;;;;;;;16.30;38.98;99478.34;4466023;32;34953;-89
2022/09/23 05:01:43;;;;;;;;;;;;;;;16.32;38.78;99480.97;4465552;32;33931;-91
2022/09/23 05:04:12;;;;;;;;;;;;;;;16.44;38.77;99488.72;4465697;32;35172;-90
2022/09/23 05:06:42;;;;;;;;;;;;;;;16.53;38.81;99496.53;4424756;32;866350;-87
2022/09/23 05:09:12;;;;;;;;;;;;;;;16.80;38.17;99499.88;4466691;32;34302;-89
2022/09/23 05:11:40;;;;;;;;;;;;;;;16.99;37.47;99504.97;4466626;32;34413;-92
2022/09/23 05:14:07;;;;;;;;;;;;;;;17.10;37.44;99499.66;4466518;32;34501;-90
2022/09/23 05:16:34;;;;;;;;;;;;;;;17.27;37.34;99500.38;4466232;32;34505;-91
2022/09/23 05:19:02;;;;;;;;;;;;;;;17.31;37.57;99498.56;4466458;32;34871;-92
2022/09/23 05:21:30;;;;;;;;;;;;;;;17.46;37.30;99494.94;4466570;32;34089;-86
2022/09/23 05:23:59;;;;;;;;;;;;;;;17.49;37.05;99498.41;4466469;32;34088;-86
2022/09/23 05:26:28;;;;;;;;;;;;;;;17.64;37.37;99497.37;4466451;32;33482;-90
2022/09/23 05:28:55;;;;;;;;;;;;;;;17.47;37.51;99492.31;4466410;32;33968;-92
2022/09/23 05:31:23;;;;;;;;;;;;;;;17.13;38.53;99509.25;4465389;32;34223;-92
2022/09/23 05:33:52;;;;;;;;;;;;;;;17.45;38.09;99499.31;4465786;32;34917;-90
2022/09/23 05:36:22;;;;;;;;;;;;;;;17.46;37.94;99516.81;4465867;32;33695;-87
2022/09/23 05:38:50;;;;;;;;;;;;;;;17.48;38.59;99515.03;4466435;32;35013;-93
2022/09/23 05:41:18;;;;;;;;;;;;;;;17.52;38.56;99508.88;4466336;32;34410;-93
2022/09/23 05:43:46;;;;;;;;;;;;;;;17.69;38.33;99511.34;4466316;32;34342;-94
2022/09/23 05:46:14;;;;;;;;;;;;;;;17.80;38.50;99505.97;4466363;32;34496;-93
2022/09/23 05:48:41;;;;;;;;;;;;;;;17.83;38.10;99505.94;4466418;32;35043;-94
2022/09/23 05:51:11;;;;;;;;;;;;;;;17.79;38.21;99506.88;4467397;32;35043;-95
2022/09/23 05:53:39;;;;;;;;;;;;;;;17.82;39.08;99501.59;4468496;32;34504;-87
2022/09/23 05:56:06;;;;;;;;;;;;;;;17.74;39.44;99509.53;4454260;32;34018;-87
2022/09/23 05:58:34;;;;;;;;;;;;;;;17.92;39.39;99505.87;4468311;32;35021;-87
2022/09/23 06:01:07;;;;;;;;;;;;;;;18.05;39.12;99503.94;4468501;32;34395;-95
2022/09/23 06:03:34;;;;;;;;;;;;;;;17.97;39.18;99498.78;4468650;32;34348;-93
2022/09/23 06:06:01;;;;;;;;;;;;;;;18.07;39.79;99507.44;4468221;32;33071;-87
2022/09/23 06:08:29;;;;;;;;;;;;;;;18.30;39.25;99501.91;4468481;32;33774;-92
2022/09/23 06:10:57;;;;;;;;;;;;;;;17.61;41.04;99500.03;4468467;32;34429;-88
2022/09/23 06:13:26;;;;;;;;;;;;;;;17.86;40.15;99508.53;4468445;32;34765;-94
2022/09/23 06:15:56;;;;;;;;;;;;;;;16.71;43.01;99517.38;4468428;32;33648;-94
2022/09/23 06:18:23;;;;;;;;;;;;;;;17.51;41.49;99512.38;4468426;32;34031;-94
2022/09/23 06:20:50;;;;;;;;;;;;;;;17.44;41.71;99521.19;4468442;32;34406;-93
2022/09/23 06:23:18;;;;;;;;;;;;;;;17.79;41.33;99508.63;4468365;32;34923;-87
2022/09/23 06:25:50;;;;;;;;;;;;;;;17.25;42.91;99517.00;4468366;32;33452;-87
2022/09/23 06:28:17;;;;;;;;;;;;;;;17.09;42.79;99518.88;4468723;32;33970;-87
2022/09/23 06:30:44;;;;;;;;;;;;;;;17.42;42.42;99516.81;4468463;32;35298;-87
2022/09/23 06:33:13;;;;;;;;;;;;;;;17.22;42.92;99517.00;4468248;32;35161;-88
2022/09/23 06:35:40;;;;;;;;;;;;;;;16.38;44.76;99513.19;4468262;32;34467;-87
2022/09/23 06:38:16;;;;;;;;;;;;;;;17.02;43.31;99520.66;4468425;32;33695;-89
2022/09/23 06:40:45;;;;;;;;;;;;;;;16.94;43.30;99519.88;4468276;32;34076;-88
2022/09/23 06:43:13;;;;;;;;;;;;;;;17.05;43.28;99524.12;4454393;32;34429;-93
2022/09/23 06:45:40;;;;;;;;;;;;;;;16.47;44.21;99523.59;4468298;32;33379;-91
2022/09/23 06:48:08;;;;;;;;;;;;;;;16.73;43.53;99520.87;4468048;32;33937;-87
2022/09/23 06:50:35;;;;;;;;;;;;;;;16.69;44.17;99532.22;4468187;32;34332;-87
2022/09/23 06:53:03;;;;;;;;;;;;;;;17.36;42.34;99532.62;4468293;32;34609;-93
2022/09/23 06:55:30;;;;;;;;;;;;;;;17.14;43.13;99534.56;4467922;32;32860;-92
2022/09/23 06:57:57;;;;;;;;;;;;;;;17.28;43.46;99527.47;4468438;32;34048;-88
2022/09/23 07:00:25;;;;;;;;;;;;;;;16.44;45.85;99533.22;4468016;32;34512;-92
2022/09/23 07:02:53;;;;;;;;;;;;;;;15.96;45.84;99525.59;4466898;32;35113;-93
2022/09/23 07:05:21;;;;;;;;;;;;;;;16.94;44.62;99529.47;4467994;32;33818;-92
2022/09/23 07:07:48;;;;;;;;;;;;;;;17.19;42.58;99531.00;4468201;32;34104;-91
2022/09/23 07:10:15;;;;;;;;;;;;;;;17.14;42.79;99522.31;4468146;32;33673;-92
2022/09/23 07:12:43;;;;;;;;;;;;;;;16.98;43.65;99532.06;4468167;32;34017;-93
2022/09/23 07:15:10;;;;;;;;;;;;;;;17.67;42.23;99525.34;4467986;32;33863;-88
2022/09/23 07:17:40;;;;;;;;;;;;;;;17.11;43.80;99537.19;4468057;32;34303;-88
2022/09/23 07:20:07;;;;;;;;;;;;;;;16.70;43.94;99536.56;4454100;32;34380;-89
2022/09/23 07:22:35;;;;;;;;;;;;;;;16.78;45.20;99542.69;4468080;32;35193;-87
2022/09/23 07:25:02;;;;;;;;;;;;;;;17.05;43.84;99538.13;4468008;32;34185;-92
2022/09/23 07:27:29;;;;;;;;;;;;;;;17.28;43.10;99548.41;4468107;32;33731;-87
2022/09/23 07:29:57;;;;;;;;;;;;;;;17.03;44.22;99545.09;4468178;32;34533;-92
2022/09/23 07:32:24;;;;;;;;;;;;;;;17.29;43.43;99544.03;4468038;32;34161;-93
2022/09/23 07:34:52;;;;;;;;;;;;;;;17.36;43.28;99543.13;4468203;32;33138;-93
2022/09/23 07:37:20;;;;;;;;;;;;;;;16.93;44.98;99559.13;4467944;32;34862;-90
2022/09/23 07:39:47;;;;;;;;;;;;;;;17.17;44.54;99552.88;4467908;32;34869;-92
2022/09/23 07:42:14;;;;;;;;;;;;;;;17.71;44.16;99537.53;4468015;32;34541;-89
2022/09/23 07:44:44;;;;;;;;;;;;;;;18.07;42.96;99538.03;4467590;32;34551;-90
2022/09/23 07:47:11;;;;;;;;;;;;;;;17.51;43.62;99549.09;4467732;32;33731;-92
2022/09/23 07:49:38;;;;;;;;;;;;;;;18.40;41.99;99535.00;4467947;32;34064;-87
2022/09/23 07:52:05;;;;;;;;;;;;;;;18.05;43.32;99540.69;4467848;32;34487;-92
2022/09/23 07:54:33;;;;;;;;;;;;;;;17.84;44.33;99533.94;4467639;32;34204;-91
2022/09/23 07:57:00;;;;;;;;;;;;;;;18.36;42.53;99535.06;4467747;32;34685;-92
2022/09/23 07:59:27;;;;;;;;;;;;;;;18.82;41.60;99537.06;4467683;32;34451;-88
2022/09/23 08:01:56;;;;;;;;;;;;;;;18.31;42.68;99532.50;4467797;32;34415;-87
2022/09/23 08:04:28;;;;;;;;;;;;;;;18.62;41.95;99537.34;4454106;32;33798;-91
2022/09/23 08:07:00;;;;;;;;;;;;;;;19.16;41.46;99534.78;4453251;32;35135;-87
2022/09/23 08:09:31;;;;;;;;;;;;;;;19.61;41.24;99534.91;4453560;32;34982;-87
2022/09/23 08:11:59;;;;;;;;;;;;;;;18.94;40.96;99540.41;4453802;32;34257;-91
2022/09/23 08:14:26;;;;;;;;;;;;;;;19.39;39.96;99535.25;4453466;32;32752;-88
2022/09/23 08:16:53;;;;;;;;;;;;;;;19.55;40.40;99538.53;4467638;32;34130;-91
2022/09/23 08:19:20;;;;;;;;;;;;;;;18.74;41.31;99537.19;4467550;32;34542;-91
2022/09/23 08:21:48;;;;;;;;;;;;;;;17.91;43.05;99538.19;4467243;32;34459;-91
2022/09/23 08:24:17;;;;;;;;;;;;;;;18.51;42.92;99539.25;4467511;32;33460;-93
2022/09/23 08:26:44;;;;;;;;;;;;;;;18.80;41.39;99537.09;4467761;32;34249;-92
2022/09/23 08:29:12;;;;;;;;;;;;;;;18.96;41.26;99533.34;4467113;32;33958;-92
2022/09/23 08:31:39;;;;;;;;;;;;;;;19.68;40.43;99528.66;4467340;32;34315;-87
2022/09/23 08:34:06;;;;;;;;;;;;;;;19.53;40.26;99528.91;4467453;32;33644;-93
2022/09/23 08:36:34;;;;;;;;;;;;;;;19.92;39.72;99525.56;4467357;32;34312;-93
2022/09/23 08:39:01;;;;;;;;;;;;;;;19.03;40.77;99528.87;4467285;32;34531;-92
2022/09/23 08:41:28;;;;;;;;;;;;;;;19.58;40.00;99527.06;4468127;32;34585;-90
2022/09/23 08:43:57;;;;;;;;;;;;;;;19.62;39.79;99524.41;4467166;32;33545;-94
2022/09/23 08:46:25;;;;;;;;;;;;;;;19.86;38.75;99528.31;4453229;32;34974;-93
2022/09/23 08:48:52;;;;;;;;;;;;;;;20.71;37.79;99534.50;4453133;32;34242;-93
2022/09/23 08:51:24;;;;;;;;;;;;;;;19.39;41.41;99534.41;4466906;32;33931;-93
2022/09/23 08:53:52;;;;;;;;;;;;;;;19.10;40.69;99529.66;4453001;32;33437;-92
2022/09/23 08:56:20;;;;;;;;;;;;;;;19.61;40.18;99527.00;4466943;32;33896;-87
2022/09/23 08:59:07;;;;;;;;;;;;;;;19.41;40.97;99538.75;4466982;32;35258;-87
2022/09/23 09:01:56;;;;;;;;;;;;;;;19.49;41.76;99524.59;4466597;32;34287;-87
2022/09/23 09:04:26;;;;;;;;;;;;;;;19.41;40.72;99533.50;4466924;32;33604;-87
2022/09/23 09:07:06;;;;;;;;;;;;;;;20.24;39.10;99521.44;4452788;32;33651;-86
2022/09/23 09:10:02;;;;;;;;;;;;;;;20.80;37.88;99527.25;4466750;32;34300;-93
2022/09/23 09:12:45;;;;;;;;;;;;;;;20.69;37.89;99537.16;4466658;32;35020;-87
2022/09/23 09:15:23;;;;;;;;;;;;;;;20.63;38.45;99529.37;4452676;32;34493;-90
2022/09/23 09:17:51;;;;;;;;;;;;;;;19.72;39.49;99522.44;4466432;32;34364;-87
2022/09/23 09:20:34;;;;;;;;;;;;;;;20.20;38.74;99522.41;4466658;32;34502;-89
2022/09/23 09:23:22;;;;;;;;;;;;;;;20.38;39.83;99524.62;4466641;32;34499;-91
2022/09/23 09:25:50;;;;;;;;;;;;;;;21.10;37.88;99533.56;4467082;32;33670;-89
2022/09/23 09:28:19;;;;;;;;;;;;;;;20.47;38.40;99530.59;4468633;32;34395;-93
2022/09/23 09:30:48;;;;;;;;;;;;;;;20.83;37.83;99519.25;4454475;32;34504;-93
2022/09/23 09:33:16;;;;;;;;;;;;;;;21.06;37.54;99515.19;4454439;32;35240;-93
2022/09/23 09:35:58;;;;;;;;;;;;;;;21.76;36.27;99513.44;4468670;32;34408;-87
2022/09/23 09:38:26;;;;;;;;;;;;;;;21.07;37.52;99512.53;4469054;32;35127;-87
2022/09/23 09:40:54;;;;;;;;;;;;;;;20.78;37.78;99513.22;4454618;32;34512;-91
2022/09/23 09:43:22;;;;;;;;;;;;;;;21.43;36.46;99515.19;4468606;32;34567;-91
2022/09/23 09:46:00;;;;;;;;;;;;;;;21.49;37.29;99512.41;4468628;32;33514;-87
2022/09/23 09:48:38;;;;;;;;;;;;;;;21.71;37.14;99509.19;4454676;32;34338;-91
2022/09/23 09:51:24;;;;;;;;;;;;;;;21.29;36.25;99507.63;4468561;32;35175;-88
2022/09/23 09:53:51;;;;;;;;;;;;;;;22.22;35.06;99496.31;4468490;32;35320;-91
2022/09/23 09:56:19;;;;;;;;;;;;;;;22.26;34.51;99492.66;4468296;32;34404;-87
2022/09/23 09:58:46;;;;;;;;;;;;;;;21.94;36.37;99498.84;4468414;32;34367;-88
2022/09/23 10:01:17;;;;;;;;;;;;;;;21.32;36.54;99496.09;4468486;32;34007;-87
2022/09/23 10:03:45;;;;;;;;;;;;;;;21.37;35.26;99494.25;4453617;32;34552;-87
2022/09/23 10:06:13;;;;;;;;;;;;;;;20.27;37.38;99495.03;4453581;32;34325;-87
2022/09/23 10:08:41;;;;;;;;;;;;;;;20.07;38.77;99486.69;4454579;32;34347;-91
2022/09/23 10:11:16;;;;;;;;;;;;;;;20.56;37.87;99496.19;4454016;32;35275;-92
2022/09/23 10:13:59;;;;;;;;;;;;;;;20.83;36.50;99497.31;4468372;32;35010;-91
2022/09/23 10:16:26;;;;;;;;;;;;;;;20.30;37.55;99492.31;4468021;32;33491;-88
2022/09/23 10:18:55;;;;;;;;;;;;;;;20.85;36.77;99492.88;4454276;32;34022;-87
2022/09/23 10:21:23;;;;;;;;;;;;;;;21.72;34.08;99489.81;4468382;32;34247;-87
2022/09/23 10:23:56;;;;;;;;;;;;;;;20.83;35.98;99487.62;4454448;32;34595;-92
2022/09/23 10:26:31;;;;;;;;;;;;;;;21.41;36.80;99484.50;4454291;32;33584;-88
2022/09/23 10:29:02;;;;;;;;;;;;;;;21.40;35.68;99480.09;4468394;32;35147;-90
2022/09/23 10:31:33;;;;;;;;;;;;;;;21.50;35.07;99486.88;4468480;32;34081;-90
2022/09/23 10:34:02;;;;;;;;;;;;;;;21.58;36.37;99491.03;4468217;32;34560;-87
2022/09/23 10:36:30;;;;;;;;;;;;;;;21.69;35.60;99490.75;4454164;32;34493;-93
2022/09/23 10:47:50;;;;;;;;;;;;;;;22.17;32.71;99471.81;4451275;32;33630;-91
2022/09/23 10:50:20;;;;;;;;;;;;;;;21.81;35.19;99474.56;4453909;32;34384;-93
2022/09/23 10:53:05;;;;;;;;;;;;;;;22.05;34.72;99474.81;4467911;32;34331;-93
2022/09/23 10:55:36;;;;;;;;;;;;;;;22.02;35.34;99478.38;4454001;32;35296;-87
2022/09/23 10:58:03;;;;;;;;;;;;;;;21.83;34.63;99475.41;4453944;32;33465;-87
2022/09/23 11:00:40;;;;;;;;;;;;;;;22.30;34.87;99481.09;4467937;32;34961;-88
2022/09/23 11:03:13;;;;;;;;;;;;;;;22.68;34.42;99472.91;4468589;32;34176;-89
2022/09/23 11:05:59;;;;;;;;;;;;;;;21.46;35.59;99472.03;4467957;32;34642;-91
2022/09/23 11:08:39;;;;;;;;;;;;;;;21.50;35.56;99484.25;4468272;32;33782;-94
2022/09/23 11:11:10;;;;;;;;;;;;;;;22.16;34.86;99470.09;4467956;32;34006;-87
2022/09/23 11:13:59;;;;;;;;;;;;;;;22.29;35.14;99465.31;4468171;32;35094;-91
2022/09/23 11:16:30;;;;;;;;;;;;;;;22.65;33.00;99468.56;4459997;32;35032;-90
2022/09/23 11:18:58;;;;;;;;;;;;;;;22.58;32.74;99467.06;4468144;32;33467;-87
2022/09/23 11:21:45;;;;;;;;;;;;;;;22.17;35.29;99461.25;4468073;32;34245;-93
2022/09/23 11:24:17;;;;;;;;;;;;;;;22.82;34.87;99463.62;4467975;32;34394;-92
2022/09/23 11:26:44;;;;;;;;;;;;;;;22.51;35.24;99455.81;4468151;32;34233;-93
2022/09/23 11:29:29;;;;;;;;;;;;;;;23.00;32.70;99456.91;4468005;32;34472;-87
2022/09/23 11:31:57;;;;;;;;;;;;;;;22.86;32.26;99450.31;4468279;32;35005;-88
2022/09/23 11:34:44;;;;;;;;;;;;;;;22.32;32.59;99444.94;4467763;32;35410;-87
2022/09/23 11:37:16;;;;;;;;;;;;;;;22.45;33.73;99444.56;4467634;32;34169;-87
2022/09/23 11:39:51;;;;;;;;;;;;;;;22.34;32.86;99442.25;4467736;32;34059;-92
2022/09/23 11:42:20;;;;;;;;;;;;;;;21.85;34.19;99444.53;4453777;32;34670;-87
2022/09/23 11:44:53;;;;;;;;;;;;;;;21.88;34.04;99433.03;4453971;32;34531;-90
2022/09/23 11:47:21;;;;;;;;;;;;;;;21.60;34.99;99438.25;4453672;32;35136;-87
2022/09/23 11:49:50;;;;;;;;;;;;;;;22.40;33.10;99431.50;4467216;32;34387;-93
2022/09/23 11:52:19;;;;;;;;;;;;;;;22.90;31.71;99430.78;4467397;32;33879;-92
2022/09/23 11:54:59;;;;;;;;;;;;;;;22.01;33.34;99425.59;4453895;32;35259;-88
2022/09/23 11:57:31;;;;;;;;;;;;;;;21.95;33.25;99428.44;4453317;32;33405;-86
2022/09/23 12:00:15;;;;;;;;;;;;;;;21.87;34.57;99426.91;4467743;32;33719;-87
2022/09/23 12:02:49;;;;;;;;;;;;;;;21.82;33.54;99425.28;4453580;32;34133;-94
2022/09/23 12:05:35;;;;;;;;;;;;;;;22.44;32.54;99421.72;4467466;32;35082;-87
2022/09/23 12:08:05;;;;;;;;;;;;;;;22.67;33.90;99424.47;4453612;32;34401;-91
2022/09/23 12:10:41;;;;;;;;;;;;;;;22.83;33.90;99428.31;4467862;32;33732;-90
2022/09/23 12:13:15;;;;;;;;;;;;;;;21.41;35.40;99416.78;4453497;32;34204;-89
2022/09/23 12:15:57;;;;;;;;;;;;;;;22.73;33.08;99413.72;4467520;32;33956;-90
2022/09/23 12:18:28;;;;;;;;;;;;;;;23.10;29.99;99406.34;4453355;32;34041;-87
2022/09/23 12:20:55;;;;;;;;;;;;;;;22.21;32.00;99410.06;4467531;32;33149;-93
2022/09/23 12:23:40;;;;;;;;;;;;;;;22.82;30.13;99399.31;4467436;32;33682;-90
2022/09/23 12:26:11;;;;;;;;;;;;;;;22.56;31.81;99401.03;4467414;32;35084;-87
2022/09/23 12:28:39;;;;;;;;;;;;;;;22.77;31.33;99388.91;4453222;32;34599;-92
2022/09/23 12:31:14;;;;;;;;;;;;;;;22.53;31.70;99400.25;4467127;32;33650;-88
2022/09/23 12:34:07;;;;;;;;;;;;;;;23.04;29.82;99397.72;4467226;32;34071;-87
2022/09/23 12:36:35;;;;;;;;;;;;;;;22.87;30.52;99388.59;4448748;32;33924;-88
2022/09/23 12:39:06;;;;;;;;;;;;;;;23.05;29.68;99380.06;4467080;32;34467;-87
2022/09/23 12:41:36;;;;;;;;;;;;;;;21.08;32.55;99381.59;4467065;32;33551;-87
2022/09/23 12:44:10;;;;;;;;;;;;;;;21.13;32.10;99374.41;4453111;32;34371;-87
2022/09/23 12:46:38;;;;;;;;;;;;;;;21.06;31.90;99378.13;4467002;32;35322;-89
2022/09/23 12:49:20;;;;;;;;;;;;;;;21.84;32.31;99376.81;4452685;32;34151;-90
2022/09/23 12:52:06;;;;;;;;;;;;;;;22.15;33.02;99372.44;4452985;32;33515;-92
2022/09/23 12:54:33;;;;;;;;;;;;;;;22.54;33.10;99375.56;4467037;32;34401;-91
2022/09/23 12:57:01;;;;;;;;;;;;;;;22.85;30.34;99359.56;4467148;32;34538;-90
2022/09/23 12:59:30;;;;;;;;;;;;;;;23.14;28.11;99353.28;4466718;32;34618;-86
2022/09/23 13:02:12;;;;;;;;;;;;;;;23.07;27.95;99351.78;4454610;32;33504;-92
2022/09/23 13:07:34;;;;;;;;;;;;;;;23.81;26.11;99346.44;4429220;32;34091;-92
2022/09/23 13:10:05;;;;;;;;;;;;;;;22.87;28.27;99346.28;4454556;32;34622;-86
2022/09/23 13:12:34;;;;;;;;;;;;;;;23.13;28.95;99343.63;4468750;32;33750;-86
2022/09/23 13:15:04;;;;;;;;;;;;;;;22.32;29.46;99356.94;4454883;32;33663;-88
2022/09/23 13:17:32;;;;;;;;;;;;;;;22.14;29.86;99339.88;4454545;32;34828;-86
2022/09/23 13:20:00;;;;;;;;;;;;;;;22.44;30.19;99334.53;4454636;32;35240;-91